sensor_id;sensor_type;location;lat;lon;timestamp;P1;durP1;ratioP1;P2;durP2;ratioP2
17714;SDS011;8977;50.902;4.314;2023-02-03T00:01:55;7.30;;;3.40;;
17714;SDS011;8977;50.902;4.314;2023-02-03T00:04:22;7.03;;;3.00;;
17714;SDS011;8977;50.902;4.314;2023-02-03T00:06:49;7.30;;;3.40;;
17714;SDS011;8977;50.902;4.314;2023-02-03T00:09:16;7.67;;;3.23;;
17714;SDS011;8977;50.902;4.314;2023-02-03T00:11:45;10.07;;;3.23;;
17714;SDS011;8977;50.902;4.314;2023-02-03T00:14:11;8.20;;;3.50;;
17714;SDS011;8977;50.902;4.314;2023-02-03T00:16:38;10.50;;;3.70;;
17714;SDS011;8977;50.902;4.314;2023-02-03T00:19:05;8.33;;;3.20;;
17714;SDS011;8977;50.902;4.314;2023-02-03T00:21:32;7.27;;;3.03;;
17714;SDS011;8977;50.902;4.314;2023-02-03T00:23:59;11.27;;;3.37;;
17714;SDS011;8977;50.902;4.314;2023-02-03T00:26:26;6.40;;;3.43;;
17714;SDS011;8977;50.902;4.314;2023-02-03T00:28:57;6.27;;;2.77;;
17714;SDS011;8977;50.902;4.314;2023-02-03T00:31:24;8.90;;;3.27;;
17714;SDS011;8977;50.902;4.314;2023-02-03T00:33:55;9.10;;;3.50;;
17714;SDS011;8977;50.902;4.314;2023-02-03T00:36:23;9.77;;;2.90;;
17714;SDS011;8977;50.902;4.314;2023-02-03T00:38:50;10.60;;;3.07;;
17714;SDS011;8977;50.902;4.314;2023-02-03T00:41:17;4.57;;;2.47;;
17714;SDS011;8977;50.902;4.314;2023-02-03T00:43:45;9.70;;;3.30;;
17714;SDS011;8977;50.902;4.314;2023-02-03T00:46:13;9.33;;;3.10;;
17714;SDS011;8977;50.902;4.314;2023-02-03T00:48:40;4.90;;;2.13;;
17714;SDS011;8977;50.902;4.314;2023-02-03T00:51:07;7.40;;;2.47;;
17714;SDS011;8977;50.902;4.314;2023-02-03T00:53:34;9.07;;;2.83;;
17714;SDS011;8977;50.902;4.314;2023-02-03T00:56:01;6.87;;;2.57;;
17714;SDS011;8977;50.902;4.314;2023-02-03T00:58:28;9.90;;;2.20;;
17714;SDS011;8977;50.902;4.314;2023-02-03T01:00:55;7.43;;;2.33;;
17714;SDS011;8977;50.902;4.314;2023-02-03T01:03:23;6.93;;;2.40;;
17714;SDS011;8977;50.902;4.314;2023-02-03T01:05:50;6.73;;;2.47;;
17714;SDS011;8977;50.902;4.314;2023-02-03T01:08:17;7.07;;;2.37;;
17714;SDS011;8977;50.902;4.314;2023-02-03T01:10:44;4.90;;;1.90;;
17714;SDS011;8977;50.902;4.314;2023-02-03T01:13:11;9.50;;;2.60;;
17714;SDS011;8977;50.902;4.314;2023-02-03T01:15:43;7.83;;;2.97;;
17714;SDS011;8977;50.902;4.314;2023-02-03T01:18:11;7.57;;;2.33;;
17714;SDS011;8977;50.902;4.314;2023-02-03T01:20:40;7.83;;;2.20;;
17714;SDS011;8977;50.902;4.314;2023-02-03T01:23:07;8.97;;;2.40;;
17714;SDS011;8977;50.902;4.314;2023-02-03T01:25:34;11.27;;;2.40;;
17714;SDS011;8977;50.902;4.314;2023-02-03T01:28:00;8.53;;;2.70;;
17714;SDS011;8977;50.902;4.314;2023-02-03T01:30:27;3.57;;;1.73;;
17714;SDS011;8977;50.902;4.314;2023-02-03T01:32:54;6.07;;;2.60;;
17714;SDS011;8977;50.902;4.314;2023-02-03T01:35:21;7.73;;;2.00;;
17714;SDS011;8977;50.902;4.314;2023-02-03T01:37:49;6.47;;;1.97;;
17714;SDS011;8977;50.902;4.314;2023-02-03T01:40:16;7.23;;;2.07;;
17714;SDS011;8977;50.902;4.314;2023-02-03T01:42:44;10.87;;;2.87;;
17714;SDS011;8977;50.902;4.314;2023-02-03T01:45:11;6.93;;;2.00;;
17714;SDS011;8977;50.902;4.314;2023-02-03T01:47:38;7.40;;;2.13;;
17714;SDS011;8977;50.902;4.314;2023-02-03T01:50:12;8.57;;;2.13;;
17714;SDS011;8977;50.902;4.314;2023-02-03T01:52:41;7.33;;;2.10;;
17714;SDS011;8977;50.902;4.314;2023-02-03T01:55:15;9.07;;;2.60;;
17714;SDS011;8977;50.902;4.314;2023-02-03T01:57:46;10.37;;;2.33;;
17714;SDS011;8977;50.902;4.314;2023-02-03T02:00:17;7.97;;;2.03;;
17714;SDS011;8977;50.902;4.314;2023-02-03T02:02:45;7.67;;;2.33;;
17714;SDS011;8977;50.902;4.314;2023-02-03T02:05:15;8.57;;;2.30;;
17714;SDS011;8977;50.902;4.314;2023-02-03T02:07:47;6.10;;;1.90;;
17714;SDS011;8977;50.902;4.314;2023-02-03T02:10:16;7.33;;;2.00;;
17714;SDS011;8977;50.902;4.314;2023-02-03T02:12:43;7.63;;;2.07;;
17714;SDS011;8977;50.902;4.314;2023-02-03T02:15:11;7.63;;;1.90;;
17714;SDS011;8977;50.902;4.314;2023-02-03T02:17:42;6.70;;;2.00;;
17714;SDS011;8977;50.902;4.314;2023-02-03T02:26:49;6.50;;;1.93;;
17714;SDS011;8977;50.902;4.314;2023-02-03T02:29:27;6.47;;;1.87;;
17714;SDS011;8977;50.902;4.314;2023-02-03T02:32:21;5.27;;;2.10;;
17714;SDS011;8977;50.902;4.314;2023-02-03T02:34:55;8.07;;;2.90;;
17714;SDS011;8977;50.902;4.314;2023-02-03T02:37:31;6.17;;;1.70;;
17714;SDS011;8977;50.902;4.314;2023-02-03T02:40:06;9.47;;;2.17;;
17714;SDS011;8977;50.902;4.314;2023-02-03T02:42:38;9.53;;;2.03;;
17714;SDS011;8977;50.902;4.314;2023-02-03T02:45:13;8.10;;;2.03;;
17714;SDS011;8977;50.902;4.314;2023-02-03T02:47:46;8.20;;;1.77;;
17714;SDS011;8977;50.902;4.314;2023-02-03T02:50:15;4.17;;;1.83;;
17714;SDS011;8977;50.902;4.314;2023-02-03T02:52:47;7.73;;;2.30;;
17714;SDS011;8977;50.902;4.314;2023-02-03T02:55:17;9.00;;;2.10;;
17714;SDS011;8977;50.902;4.314;2023-02-03T02:57:48;6.27;;;2.30;;
17714;SDS011;8977;50.902;4.314;2023-02-03T03:00:18;6.73;;;1.97;;
17714;SDS011;8977;50.902;4.314;2023-02-03T03:02:48;7.77;;;2.13;;
17714;SDS011;8977;50.902;4.314;2023-02-03T03:05:15;5.97;;;2.13;;
17714;SDS011;8977;50.902;4.314;2023-02-03T03:07:44;8.53;;;2.10;;
17714;SDS011;8977;50.902;4.314;2023-02-03T03:10:18;5.90;;;1.97;;
17714;SDS011;8977;50.902;4.314;2023-02-03T03:12:49;6.10;;;2.00;;
17714;SDS011;8977;50.902;4.314;2023-02-03T03:15:20;6.23;;;2.67;;
17714;SDS011;8977;50.902;4.314;2023-02-03T03:17:52;5.10;;;1.60;;
17714;SDS011;8977;50.902;4.314;2023-02-03T03:20:23;8.30;;;2.43;;
17714;SDS011;8977;50.902;4.314;2023-02-03T03:22:52;6.80;;;1.87;;
17714;SDS011;8977;50.902;4.314;2023-02-03T03:25:29;7.83;;;2.20;;
17714;SDS011;8977;50.902;4.314;2023-02-03T03:28:02;5.73;;;1.73;;
17714;SDS011;8977;50.902;4.314;2023-02-03T03:30:34;5.50;;;1.70;;
17714;SDS011;8977;50.902;4.314;2023-02-03T03:33:04;9.50;;;2.07;;
17714;SDS011;8977;50.902;4.314;2023-02-03T03:35:35;8.17;;;2.63;;
17714;SDS011;8977;50.902;4.314;2023-02-03T03:38:07;7.93;;;2.30;;
17714;SDS011;8977;50.902;4.314;2023-02-03T03:40:38;6.13;;;1.87;;
17714;SDS011;8977;50.902;4.314;2023-02-03T03:43:11;4.53;;;1.37;;
17714;SDS011;8977;50.902;4.314;2023-02-03T03:45:42;7.03;;;1.93;;
17714;SDS011;8977;50.902;4.314;2023-02-03T03:48:16;9.77;;;2.43;;
17714;SDS011;8977;50.902;4.314;2023-02-03T03:50:48;6.70;;;2.00;;
17714;SDS011;8977;50.902;4.314;2023-02-03T03:53:18;7.83;;;2.70;;
17714;SDS011;8977;50.902;4.314;2023-02-03T03:55:48;3.97;;;1.60;;
17714;SDS011;8977;50.902;4.314;2023-02-03T03:58:18;3.27;;;1.30;;
17714;SDS011;8977;50.902;4.314;2023-02-03T04:00:49;6.00;;;2.30;;
17714;SDS011;8977;50.902;4.314;2023-02-03T04:03:22;4.17;;;1.53;;
17714;SDS011;8977;50.902;4.314;2023-02-03T04:05:52;4.77;;;1.43;;
17714;SDS011;8977;50.902;4.314;2023-02-03T04:08:19;5.80;;;1.40;;
17714;SDS011;8977;50.902;4.314;2023-02-03T04:10:46;5.00;;;1.60;;
17714;SDS011;8977;50.902;4.314;2023-02-03T04:13:13;4.30;;;1.47;;
17714;SDS011;8977;50.902;4.314;2023-02-03T04:15:40;5.53;;;1.70;;
17714;SDS011;8977;50.902;4.314;2023-02-03T04:18:09;5.20;;;1.40;;
17714;SDS011;8977;50.902;4.314;2023-02-03T04:20:39;3.97;;;1.73;;
17714;SDS011;8977;50.902;4.314;2023-02-03T04:23:06;6.07;;;1.57;;
17714;SDS011;8977;50.902;4.314;2023-02-03T04:25:33;7.90;;;2.07;;
17714;SDS011;8977;50.902;4.314;2023-02-03T04:28:00;6.70;;;1.60;;
17714;SDS011;8977;50.902;4.314;2023-02-03T04:30:27;4.47;;;1.57;;
17714;SDS011;8977;50.902;4.314;2023-02-03T04:32:54;5.10;;;1.50;;
17714;SDS011;8977;50.902;4.314;2023-02-03T04:35:21;3.43;;;1.60;;
17714;SDS011;8977;50.902;4.314;2023-02-03T04:37:49;7.73;;;1.80;;
17714;SDS011;8977;50.902;4.314;2023-02-03T04:40:16;4.47;;;1.73;;
17714;SDS011;8977;50.902;4.314;2023-02-03T04:42:44;5.90;;;1.40;;
17714;SDS011;8977;50.902;4.314;2023-02-03T04:45:11;5.17;;;1.50;;
17714;SDS011;8977;50.902;4.314;2023-02-03T04:47:38;5.10;;;1.30;;
17714;SDS011;8977;50.902;4.314;2023-02-03T04:50:05;7.80;;;2.00;;
17714;SDS011;8977;50.902;4.314;2023-02-03T04:52:33;4.37;;;1.30;;
17714;SDS011;8977;50.902;4.314;2023-02-03T04:55:01;8.17;;;1.83;;
17714;SDS011;8977;50.902;4.314;2023-02-03T04:57:28;5.27;;;1.30;;
17714;SDS011;8977;50.902;4.314;2023-02-03T04:59:55;7.67;;;1.50;;
17714;SDS011;8977;50.902;4.314;2023-02-03T05:02:22;4.13;;;1.30;;
17714;SDS011;8977;50.902;4.314;2023-02-03T05:04:49;2.93;;;1.33;;
17714;SDS011;8977;50.902;4.314;2023-02-03T05:07:16;2.10;;;1.07;;
17714;SDS011;8977;50.902;4.314;2023-02-03T05:09:43;5.07;;;1.40;;
17714;SDS011;8977;50.902;4.314;2023-02-03T05:12:11;3.27;;;1.20;;
17714;SDS011;8977;50.902;4.314;2023-02-03T05:14:38;3.53;;;1.40;;
17714;SDS011;8977;50.902;4.314;2023-02-03T05:17:05;5.70;;;1.30;;
17714;SDS011;8977;50.902;4.314;2023-02-03T05:19:31;8.17;;;1.50;;
17714;SDS011;8977;50.902;4.314;2023-02-03T05:21:58;4.13;;;1.30;;
17714;SDS011;8977;50.902;4.314;2023-02-03T05:24:25;4.13;;;1.20;;
17714;SDS011;8977;50.902;4.314;2023-02-03T05:26:52;5.90;;;1.67;;
17714;SDS011;8977;50.902;4.314;2023-02-03T05:29:20;3.93;;;1.53;;
17714;SDS011;8977;50.902;4.314;2023-02-03T05:31:47;4.63;;;1.40;;
17714;SDS011;8977;50.902;4.314;2023-02-03T05:34:14;6.07;;;1.40;;
17714;SDS011;8977;50.902;4.314;2023-02-03T05:36:41;4.80;;;1.40;;
17714;SDS011;8977;50.902;4.314;2023-02-03T05:39:08;3.53;;;1.60;;
17714;SDS011;8977;50.902;4.314;2023-02-03T05:41:34;4.67;;;1.37;;
17714;SDS011;8977;50.902;4.314;2023-02-03T05:44:19;3.33;;;1.40;;
17714;SDS011;8977;50.902;4.314;2023-02-03T05:46:49;5.27;;;1.30;;
17714;SDS011;8977;50.902;4.314;2023-02-03T05:49:20;2.53;;;1.30;;
17714;SDS011;8977;50.902;4.314;2023-02-03T05:51:48;5.43;;;1.40;;
17714;SDS011;8977;50.902;4.314;2023-02-03T05:54:15;3.40;;;1.23;;
17714;SDS011;8977;50.902;4.314;2023-02-03T05:56:42;4.97;;;1.53;;
17714;SDS011;8977;50.902;4.314;2023-02-03T05:59:10;5.47;;;1.50;;
17714;SDS011;8977;50.902;4.314;2023-02-03T06:01:38;4.00;;;1.30;;
17714;SDS011;8977;50.902;4.314;2023-02-03T06:04:05;4.00;;;1.57;;
17714;SDS011;8977;50.902;4.314;2023-02-03T06:06:32;3.63;;;1.40;;
17714;SDS011;8977;50.902;4.314;2023-02-03T06:08:59;3.87;;;1.47;;
17714;SDS011;8977;50.902;4.314;2023-02-03T06:11:27;5.23;;;1.47;;
17714;SDS011;8977;50.902;4.314;2023-02-03T06:13:54;3.43;;;1.27;;
17714;SDS011;8977;50.902;4.314;2023-02-03T06:16:22;4.73;;;1.47;;
17714;SDS011;8977;50.902;4.314;2023-02-03T06:18:51;3.57;;;1.30;;
17714;SDS011;8977;50.902;4.314;2023-02-03T06:21:19;5.00;;;1.40;;
17714;SDS011;8977;50.902;4.314;2023-02-03T06:23:46;4.70;;;1.53;;
17714;SDS011;8977;50.902;4.314;2023-02-03T06:26:13;4.53;;;1.17;;
17714;SDS011;8977;50.902;4.314;2023-02-03T06:28:40;3.70;;;1.37;;
17714;SDS011;8977;50.902;4.314;2023-02-03T06:31:07;4.17;;;1.60;;
17714;SDS011;8977;50.902;4.314;2023-02-03T06:33:34;3.23;;;1.27;;
17714;SDS011;8977;50.902;4.314;2023-02-03T06:36:02;5.20;;;1.37;;
17714;SDS011;8977;50.902;4.314;2023-02-03T06:38:29;3.50;;;1.47;;
17714;SDS011;8977;50.902;4.314;2023-02-03T06:40:56;3.97;;;1.47;;
17714;SDS011;8977;50.902;4.314;2023-02-03T06:43:23;2.70;;;1.37;;
17714;SDS011;8977;50.902;4.314;2023-02-03T06:45:50;5.00;;;1.50;;
17714;SDS011;8977;50.902;4.314;2023-02-03T06:48:17;6.57;;;1.80;;
17714;SDS011;8977;50.902;4.314;2023-02-03T06:50:44;3.60;;;1.60;;
17714;SDS011;8977;50.902;4.314;2023-02-03T06:53:12;2.47;;;1.23;;
17714;SDS011;8977;50.902;4.314;2023-02-03T06:55:39;2.47;;;1.57;;
17714;SDS011;8977;50.902;4.314;2023-02-03T06:58:06;5.67;;;1.60;;
17714;SDS011;8977;50.902;4.314;2023-02-03T07:00:32;4.17;;;1.40;;
17714;SDS011;8977;50.902;4.314;2023-02-03T07:02:59;9.23;;;1.50;;
17714;SDS011;8977;50.902;4.314;2023-02-03T07:05:27;4.90;;;1.30;;
17714;SDS011;8977;50.902;4.314;2023-02-03T07:07:53;5.87;;;1.63;;
17714;SDS011;8977;50.902;4.314;2023-02-03T07:10:22;3.00;;;1.50;;
17714;SDS011;8977;50.902;4.314;2023-02-03T07:12:48;3.73;;;1.50;;
17714;SDS011;8977;50.902;4.314;2023-02-03T07:15:16;4.23;;;1.30;;
17714;SDS011;8977;50.902;4.314;2023-02-03T07:17:42;6.50;;;1.50;;
17714;SDS011;8977;50.902;4.314;2023-02-03T07:20:12;4.73;;;1.50;;
17714;SDS011;8977;50.902;4.314;2023-02-03T07:22:39;2.90;;;1.47;;
17714;SDS011;8977;50.902;4.314;2023-02-03T07:25:07;6.17;;;1.73;;
17714;SDS011;8977;50.902;4.314;2023-02-03T07:27:36;5.80;;;1.70;;
17714;SDS011;8977;50.902;4.314;2023-02-03T07:30:03;3.30;;;1.60;;
17714;SDS011;8977;50.902;4.314;2023-02-03T07:32:30;5.47;;;1.97;;
17714;SDS011;8977;50.902;4.314;2023-02-03T07:34:57;5.57;;;1.80;;
17714;SDS011;8977;50.902;4.314;2023-02-03T07:37:25;8.70;;;2.00;;
17714;SDS011;8977;50.902;4.314;2023-02-03T07:39:52;5.40;;;1.60;;
17714;SDS011;8977;50.902;4.314;2023-02-03T07:42:18;5.83;;;1.97;;
17714;SDS011;8977;50.902;4.314;2023-02-03T07:44:47;6.77;;;1.73;;
17714;SDS011;8977;50.902;4.314;2023-02-03T07:47:13;3.90;;;1.80;;
17714;SDS011;8977;50.902;4.314;2023-02-03T07:49:40;3.53;;;1.50;;
17714;SDS011;8977;50.902;4.314;2023-02-03T07:52:08;5.33;;;1.60;;
17714;SDS011;8977;50.902;4.314;2023-02-03T07:54:34;3.80;;;1.50;;
17714;SDS011;8977;50.902;4.314;2023-02-03T07:57:01;4.60;;;1.53;;
17714;SDS011;8977;50.902;4.314;2023-02-03T07:59:28;5.77;;;2.10;;
17714;SDS011;8977;50.902;4.314;2023-02-03T08:01:56;6.57;;;1.67;;
17714;SDS011;8977;50.902;4.314;2023-02-03T08:04:23;5.73;;;1.70;;
17714;SDS011;8977;50.902;4.314;2023-02-03T08:06:50;6.13;;;1.70;;
17714;SDS011;8977;50.902;4.314;2023-02-03T08:09:17;4.73;;;1.63;;
17714;SDS011;8977;50.902;4.314;2023-02-03T08:11:44;8.57;;;1.40;;
17714;SDS011;8977;50.902;4.314;2023-02-03T08:14:11;5.67;;;1.50;;
17714;SDS011;8977;50.902;4.314;2023-02-03T08:16:37;5.53;;;1.57;;
17714;SDS011;8977;50.902;4.314;2023-02-03T08:19:06;2.77;;;1.70;;
17714;SDS011;8977;50.902;4.314;2023-02-03T08:21:33;3.90;;;1.60;;
17714;SDS011;8977;50.902;4.314;2023-02-03T08:23:59;7.27;;;1.93;;
17714;SDS011;8977;50.902;4.314;2023-02-03T08:26:26;5.23;;;1.80;;
17714;SDS011;8977;50.902;4.314;2023-02-03T08:28:53;2.63;;;1.40;;
17714;SDS011;8977;50.902;4.314;2023-02-03T08:31:20;2.07;;;1.13;;
17714;SDS011;8977;50.902;4.314;2023-02-03T08:33:47;4.90;;;1.40;;
17714;SDS011;8977;50.902;4.314;2023-02-03T08:36:15;4.00;;;1.30;;
17714;SDS011;8977;50.902;4.314;2023-02-03T08:38:42;4.60;;;1.63;;
17714;SDS011;8977;50.902;4.314;2023-02-03T08:41:09;5.77;;;1.60;;
17714;SDS011;8977;50.902;4.314;2023-02-03T08:43:36;4.83;;;1.47;;
17714;SDS011;8977;50.902;4.314;2023-02-03T08:46:04;4.53;;;1.37;;
17714;SDS011;8977;50.902;4.314;2023-02-03T08:48:32;3.67;;;1.70;;
17714;SDS011;8977;50.902;4.314;2023-02-03T08:50:59;8.23;;;2.07;;
17714;SDS011;8977;50.902;4.314;2023-02-03T08:53:27;4.00;;;1.50;;
17714;SDS011;8977;50.902;4.314;2023-02-03T08:55:54;4.17;;;1.40;;
17714;SDS011;8977;50.902;4.314;2023-02-03T08:58:21;3.70;;;1.60;;
17714;SDS011;8977;50.902;4.314;2023-02-03T09:00:48;4.07;;;1.43;;
17714;SDS011;8977;50.902;4.314;2023-02-03T09:03:17;7.40;;;1.57;;
17714;SDS011;8977;50.902;4.314;2023-02-03T09:05:44;4.30;;;1.40;;
17714;SDS011;8977;50.902;4.314;2023-02-03T09:08:10;5.37;;;1.50;;
17714;SDS011;8977;50.902;4.314;2023-02-03T09:10:39;2.30;;;1.40;;
17714;SDS011;8977;50.902;4.314;2023-02-03T09:13:05;5.60;;;1.27;;
17714;SDS011;8977;50.902;4.314;2023-02-03T09:15:32;3.87;;;1.20;;
17714;SDS011;8977;50.902;4.314;2023-02-03T09:17:59;4.90;;;2.10;;
17714;SDS011;8977;50.902;4.314;2023-02-03T09:20:26;9.17;;;1.97;;
17714;SDS011;8977;50.902;4.314;2023-02-03T09:22:53;3.60;;;1.70;;
17714;SDS011;8977;50.902;4.314;2023-02-03T09:25:19;4.60;;;1.63;;
17714;SDS011;8977;50.902;4.314;2023-02-03T09:27:47;3.77;;;1.70;;
17714;SDS011;8977;50.902;4.314;2023-02-03T09:30:15;2.80;;;1.30;;
17714;SDS011;8977;50.902;4.314;2023-02-03T09:32:42;5.23;;;1.93;;
17714;SDS011;8977;50.902;4.314;2023-02-03T09:35:13;5.53;;;1.67;;
17714;SDS011;8977;50.902;4.314;2023-02-03T09:37:40;4.70;;;2.17;;
17714;SDS011;8977;50.902;4.314;2023-02-03T09:40:07;5.30;;;1.80;;
17714;SDS011;8977;50.902;4.314;2023-02-03T09:42:52;4.40;;;1.63;;
17714;SDS011;8977;50.902;4.314;2023-02-03T09:45:27;4.37;;;1.70;;
17714;SDS011;8977;50.902;4.314;2023-02-03T09:47:56;8.37;;;2.50;;
17714;SDS011;8977;50.902;4.314;2023-02-03T09:50:29;4.50;;;2.27;;
17714;SDS011;8977;50.902;4.314;2023-02-03T09:53:00;3.57;;;1.50;;
17714;SDS011;8977;50.902;4.314;2023-02-03T09:55:32;5.63;;;2.10;;
17714;SDS011;8977;50.902;4.314;2023-02-03T09:58:04;4.90;;;2.03;;
17714;SDS011;8977;50.902;4.314;2023-02-03T10:00:38;3.80;;;1.97;;
17714;SDS011;8977;50.902;4.314;2023-02-03T10:03:10;4.30;;;1.90;;
17714;SDS011;8977;50.902;4.314;2023-02-03T10:08:40;4.13;;;2.00;;
17714;SDS011;8977;50.902;4.314;2023-02-03T10:11:20;4.73;;;2.20;;
17714;SDS011;8977;50.902;4.314;2023-02-03T10:13:57;6.07;;;2.20;;
17714;SDS011;8977;50.902;4.314;2023-02-03T10:16:40;4.73;;;2.60;;
17714;SDS011;8977;50.902;4.314;2023-02-03T10:19:14;5.07;;;2.23;;
17714;SDS011;8977;50.902;4.314;2023-02-03T10:21:47;2.63;;;1.83;;
17714;SDS011;8977;50.902;4.314;2023-02-03T10:24:20;6.10;;;2.40;;
17714;SDS011;8977;50.902;4.314;2023-02-03T10:26:51;5.40;;;2.83;;
17714;SDS011;8977;50.902;4.314;2023-02-03T10:29:22;8.37;;;2.37;;
17714;SDS011;8977;50.902;4.314;2023-02-03T10:31:56;5.10;;;2.50;;
17714;SDS011;8977;50.902;4.314;2023-02-03T10:34:24;2.57;;;2.20;;
17714;SDS011;8977;50.902;4.314;2023-02-03T10:36:55;6.47;;;2.10;;
17714;SDS011;8977;50.902;4.314;2023-02-03T10:39:30;3.90;;;2.30;;
17714;SDS011;8977;50.902;4.314;2023-02-03T10:42:08;6.27;;;2.60;;
17714;SDS011;8977;50.902;4.314;2023-02-03T10:44:39;4.03;;;2.80;;
17714;SDS011;8977;50.902;4.314;2023-02-03T10:47:18;4.37;;;2.47;;
17714;SDS011;8977;50.902;4.314;2023-02-03T10:49:49;4.97;;;2.53;;
17714;SDS011;8977;50.902;4.314;2023-02-03T10:52:24;4.90;;;2.40;;
17714;SDS011;8977;50.902;4.314;2023-02-03T10:54:53;4.93;;;2.40;;
17714;SDS011;8977;50.902;4.314;2023-02-03T10:57:20;3.17;;;2.63;;
17714;SDS011;8977;50.902;4.314;2023-02-03T10:59:49;5.50;;;2.80;;
17714;SDS011;8977;50.902;4.314;2023-02-03T11:02:21;3.37;;;2.50;;
17714;SDS011;8977;50.902;4.314;2023-02-03T11:07:36;6.07;;;3.00;;
17714;SDS011;8977;50.902;4.314;2023-02-03T11:10:03;4.70;;;2.70;;
17714;SDS011;8977;50.902;4.314;2023-02-03T11:13:10;10.23;;;3.30;;
17714;SDS011;8977;50.902;4.314;2023-02-03T11:15:46;6.20;;;2.70;;
17714;SDS011;8977;50.902;4.314;2023-02-03T11:18:24;4.27;;;2.90;;
17714;SDS011;8977;50.902;4.314;2023-02-03T11:20:57;5.13;;;2.73;;
17714;SDS011;8977;50.902;4.314;2023-02-03T11:23:25;6.23;;;2.87;;
17714;SDS011;8977;50.902;4.314;2023-02-03T11:25:51;4.80;;;2.90;;
17714;SDS011;8977;50.902;4.314;2023-02-03T11:28:18;5.50;;;2.80;;
17714;SDS011;8977;50.902;4.314;2023-02-03T11:30:47;8.67;;;2.93;;
17714;SDS011;8977;50.902;4.314;2023-02-03T11:33:22;4.60;;;2.80;;
17714;SDS011;8977;50.902;4.314;2023-02-03T11:35:52;5.90;;;2.63;;
17714;SDS011;8977;50.902;4.314;2023-02-03T11:38:28;8.03;;;2.87;;
17714;SDS011;8977;50.902;4.314;2023-02-03T11:40:59;5.60;;;2.40;;
17714;SDS011;8977;50.902;4.314;2023-02-03T11:43:27;3.60;;;2.50;;
17714;SDS011;8977;50.902;4.314;2023-02-03T11:45:59;4.37;;;2.40;;
17714;SDS011;8977;50.902;4.314;2023-02-03T11:48:34;5.60;;;2.73;;
17714;SDS011;8977;50.902;4.314;2023-02-03T11:51:03;3.60;;;2.23;;
17714;SDS011;8977;50.902;4.314;2023-02-03T11:53:43;3.23;;;2.60;;
17714;SDS011;8977;50.902;4.314;2023-02-03T11:56:23;5.40;;;2.70;;
17714;SDS011;8977;50.902;4.314;2023-02-03T11:59:02;3.30;;;2.60;;
17714;SDS011;8977;50.902;4.314;2023-02-03T12:01:58;3.40;;;2.30;;
17714;SDS011;8977;50.902;4.314;2023-02-03T12:04:59;6.17;;;3.23;;
17714;SDS011;8977;50.902;4.314;2023-02-03T12:07:37;5.40;;;2.87;;
17714;SDS011;8977;50.902;4.314;2023-02-03T12:10:16;4.87;;;2.43;;
17714;SDS011;8977;50.902;4.314;2023-02-03T12:12:54;3.10;;;2.77;;
17714;SDS011;8977;50.902;4.314;2023-02-03T12:15:38;7.23;;;2.60;;
17714;SDS011;8977;50.902;4.314;2023-02-03T12:18:21;5.03;;;2.40;;
17714;SDS011;8977;50.902;4.314;2023-02-03T12:21:00;3.47;;;2.10;;
17714;SDS011;8977;50.902;4.314;2023-02-03T12:23:40;6.93;;;2.80;;
17714;SDS011;8977;50.902;4.314;2023-02-03T12:26:15;5.77;;;2.73;;
17714;SDS011;8977;50.902;4.314;2023-02-03T12:28:49;4.87;;;2.80;;
17714;SDS011;8977;50.902;4.314;2023-02-03T12:31:24;4.67;;;2.77;;
17714;SDS011;8977;50.902;4.314;2023-02-03T12:33:58;4.33;;;2.43;;
17714;SDS011;8977;50.902;4.314;2023-02-03T12:36:32;3.93;;;2.43;;
17714;SDS011;8977;50.902;4.314;2023-02-03T12:39:05;5.70;;;2.90;;
17714;SDS011;8977;50.902;4.314;2023-02-03T12:41:37;4.93;;;2.47;;
17714;SDS011;8977;50.902;4.314;2023-02-03T12:44:12;4.47;;;2.60;;
17714;SDS011;8977;50.902;4.314;2023-02-03T12:46:44;5.47;;;2.87;;
17714;SDS011;8977;50.902;4.314;2023-02-03T12:49:18;5.53;;;2.70;;
17714;SDS011;8977;50.902;4.314;2023-02-03T12:51:54;5.87;;;2.50;;
17714;SDS011;8977;50.902;4.314;2023-02-03T12:54:29;6.83;;;2.57;;
17714;SDS011;8977;50.902;4.314;2023-02-03T12:57:15;4.23;;;2.53;;
17714;SDS011;8977;50.902;4.314;2023-02-03T12:59:48;4.13;;;2.60;;
17714;SDS011;8977;50.902;4.314;2023-02-03T13:02:24;4.97;;;2.57;;
17714;SDS011;8977;50.902;4.314;2023-02-03T13:04:55;3.63;;;2.13;;
17714;SDS011;8977;50.902;4.314;2023-02-03T13:07:28;4.17;;;2.50;;
17714;SDS011;8977;50.902;4.314;2023-02-03T13:10:02;6.00;;;2.70;;
17714;SDS011;8977;50.902;4.314;2023-02-03T13:12:32;4.40;;;2.33;;
17714;SDS011;8977;50.902;4.314;2023-02-03T13:15:05;4.83;;;2.43;;
17714;SDS011;8977;50.902;4.314;2023-02-03T13:17:45;5.00;;;3.07;;
17714;SDS011;8977;50.902;4.314;2023-02-03T13:20:18;7.97;;;2.30;;
17714;SDS011;8977;50.902;4.314;2023-02-03T13:22:46;6.07;;;2.23;;
17714;SDS011;8977;50.902;4.314;2023-02-03T13:25:15;4.47;;;2.40;;
17714;SDS011;8977;50.902;4.314;2023-02-03T13:27:47;5.17;;;2.20;;
17714;SDS011;8977;50.902;4.314;2023-02-03T13:30:26;4.23;;;2.30;;
17714;SDS011;8977;50.902;4.314;2023-02-03T13:33:26;8.97;;;3.27;;
17714;SDS011;8977;50.902;4.314;2023-02-03T13:36:14;2.87;;;2.33;;
17714;SDS011;8977;50.902;4.314;2023-02-03T13:39:03;5.20;;;2.50;;
17714;SDS011;8977;50.902;4.314;2023-02-03T13:41:52;4.43;;;2.70;;
17714;SDS011;8977;50.902;4.314;2023-02-03T13:44:21;4.77;;;2.63;;
17714;SDS011;8977;50.902;4.314;2023-02-03T13:46:53;3.77;;;2.63;;
17714;SDS011;8977;50.902;4.314;2023-02-03T13:49:24;4.63;;;2.63;;
17714;SDS011;8977;50.902;4.314;2023-02-03T13:51:56;4.87;;;2.53;;
17714;SDS011;8977;50.902;4.314;2023-02-03T13:54:26;5.40;;;2.73;;
17714;SDS011;8977;50.902;4.314;2023-02-03T13:56:56;6.07;;;2.50;;
17714;SDS011;8977;50.902;4.314;2023-02-03T13:59:26;5.00;;;2.47;;
17714;SDS011;8977;50.902;4.314;2023-02-03T14:04:58;8.07;;;2.67;;
17714;SDS011;8977;50.902;4.314;2023-02-03T14:07:28;4.07;;;2.27;;
17714;SDS011;8977;50.902;4.314;2023-02-03T14:10:04;2.87;;;2.30;;
17714;SDS011;8977;50.902;4.314;2023-02-03T14:12:55;5.50;;;2.63;;
17714;SDS011;8977;50.902;4.314;2023-02-03T14:15:33;5.03;;;2.40;;
17714;SDS011;8977;50.902;4.314;2023-02-03T14:23:51;4.87;;;2.83;;
17714;SDS011;8977;50.902;4.314;2023-02-03T14:26:29;5.20;;;2.30;;
17714;SDS011;8977;50.902;4.314;2023-02-03T14:29:03;4.57;;;2.30;;
17714;SDS011;8977;50.902;4.314;2023-02-03T14:31:31;5.70;;;2.33;;
17714;SDS011;8977;50.902;4.314;2023-02-03T14:34:19;5.10;;;2.40;;
17714;SDS011;8977;50.902;4.314;2023-02-03T14:36:55;3.03;;;2.00;;
17714;SDS011;8977;50.902;4.314;2023-02-03T14:39:32;2.50;;;2.10;;
17714;SDS011;8977;50.902;4.314;2023-02-03T14:42:21;9.10;;;2.20;;
17714;SDS011;8977;50.902;4.314;2023-02-03T14:45:12;2.83;;;1.77;;
17714;SDS011;8977;50.902;4.314;2023-02-03T14:47:54;4.23;;;1.90;;
17714;SDS011;8977;50.902;4.314;2023-02-03T14:50:34;2.33;;;1.53;;
17714;SDS011;8977;50.902;4.314;2023-02-03T14:56:12;5.33;;;2.43;;
17714;SDS011;8977;50.902;4.314;2023-02-03T14:58:47;2.70;;;1.87;;
17714;SDS011;8977;50.902;4.314;2023-02-03T15:01:24;5.70;;;3.07;;
17714;SDS011;8977;50.902;4.314;2023-02-03T15:04:23;5.30;;;2.83;;
17714;SDS011;8977;50.902;4.314;2023-02-03T15:06:50;4.17;;;2.20;;
17714;SDS011;8977;50.902;4.314;2023-02-03T15:09:21;4.57;;;2.73;;
17714;SDS011;8977;50.902;4.314;2023-02-03T15:11:52;3.10;;;2.00;;
17714;SDS011;8977;50.902;4.314;2023-02-03T15:14:20;5.70;;;2.50;;
17714;SDS011;8977;50.902;4.314;2023-02-03T15:16:52;6.90;;;2.73;;
17714;SDS011;8977;50.902;4.314;2023-02-03T15:19:23;3.50;;;2.10;;
17714;SDS011;8977;50.902;4.314;2023-02-03T15:21:51;4.13;;;2.50;;
17714;SDS011;8977;50.902;4.314;2023-02-03T15:24:19;4.03;;;2.50;;
17714;SDS011;8977;50.902;4.314;2023-02-03T15:26:49;5.03;;;2.40;;
17714;SDS011;8977;50.902;4.314;2023-02-03T15:29:18;4.23;;;2.20;;
17714;SDS011;8977;50.902;4.314;2023-02-03T15:31:49;3.30;;;2.00;;
17714;SDS011;8977;50.902;4.314;2023-02-03T15:34:24;4.27;;;2.13;;
17714;SDS011;8977;50.902;4.314;2023-02-03T15:36:54;4.77;;;2.40;;
17714;SDS011;8977;50.902;4.314;2023-02-03T15:39:30;6.27;;;4.43;;
17714;SDS011;8977;50.902;4.314;2023-02-03T15:42:03;5.70;;;3.37;;
17714;SDS011;8977;50.902;4.314;2023-02-03T15:44:34;3.77;;;2.30;;
17714;SDS011;8977;50.902;4.314;2023-02-03T15:47:14;4.87;;;2.37;;